sensor_id;sensor_type;location;lat;lon;timestamp;pressure;altitude;pressure_sealevel;temperature;humidity
46241;BME280;31961;52.416;-0.732;2022-08-19T00:02:09;100308.68;;;15.96;73.48
46241;BME280;31961;52.416;-0.732;2022-08-19T00:04:36;100314.56;;;15.78;74.44
46241;BME280;31961;52.416;-0.732;2022-08-19T00:07:05;100306.59;;;16.43;71.80
46241;BME280;31961;52.416;-0.732;2022-08-19T00:09:33;100300.39;;;16.00;71.93
46241;BME280;31961;52.416;-0.732;2022-08-19T00:12:00;100292.65;;;17.43;69.01
46241;BME280;31961;52.416;-0.732;2022-08-19T00:14:29;100303.67;;;16.43;71.19
46241;BME280;31961;52.416;-0.732;2022-08-19T00:16:57;100303.61;;;16.94;70.54
46241;BME280;31961;52.416;-0.732;2022-08-19T00:19:25;100311.52;;;16.36;71.19
46241;BME280;31961;52.416;-0.732;2022-08-19T00:21:52;100308.65;;;17.10;69.27
46241;BME280;31961;52.416;-0.732;2022-08-19T00:24:20;100307.93;;;17.28;68.81
46241;BME280;31961;52.416;-0.732;2022-08-19T00:26:48;100303.15;;;17.22;69.69
46241;BME280;31961;52.416;-0.732;2022-08-19T00:29:18;100305.94;;;17.16;68.82
46241;BME280;31961;52.416;-0.732;2022-08-19T00:31:47;100308.71;;;16.93;69.87
46241;BME280;31961;52.416;-0.732;2022-08-19T00:34:15;100319.75;;;16.20;71.95
46241;BME280;31961;52.416;-0.732;2022-08-19T00:36:43;100313.10;;;16.69;69.56
46241;BME280;31961;52.416;-0.732;2022-08-19T00:39:10;100310.54;;;16.94;68.87
46241;BME280;31961;52.416;-0.732;2022-08-19T00:41:39;100318.63;;;16.72;72.54
46241;BME280;31961;52.416;-0.732;2022-08-19T00:44:10;100316.26;;;16.24;72.62
46241;BME280;31961;52.416;-0.732;2022-08-19T00:46:42;100315.27;;;16.94;71.16
46241;BME280;31961;52.416;-0.732;2022-08-19T00:49:13;100319.70;;;16.62;72.94
46241;BME280;31961;52.416;-0.732;2022-08-19T00:51:43;100322.87;;;16.34;71.32
46241;BME280;31961;52.416;-0.732;2022-08-19T00:54:12;100322.21;;;16.74;72.25
46241;BME280;31961;52.416;-0.732;2022-08-19T00:56:40;100319.01;;;16.75;71.77
46241;BME280;31961;52.416;-0.732;2022-08-19T00:59:07;100321.52;;;16.41;71.06
46241;BME280;31961;52.416;-0.732;2022-08-19T01:01:36;100322.23;;;16.02;72.90
46241;BME280;31961;52.416;-0.732;2022-08-19T01:04:03;100321.47;;;15.92;73.31
46241;BME280;31961;52.416;-0.732;2022-08-19T01:06:32;100323.02;;;16.31;72.99
46241;BME280;31961;52.416;-0.732;2022-08-19T01:09:00;100321.75;;;16.55;72.28
46241;BME280;31961;52.416;-0.732;2022-08-19T01:11:27;100311.97;;;16.41;71.52
46241;BME280;31961;52.416;-0.732;2022-08-19T01:13:57;100319.66;;;15.99;72.54
46241;BME280;31961;52.416;-0.732;2022-08-19T01:16:27;100317.03;;;16.80;71.22
46241;BME280;31961;52.416;-0.732;2022-08-19T01:18:55;100321.16;;;15.86;72.30
46241;BME280;31961;52.416;-0.732;2022-08-19T01:21:28;100323.13;;;16.09;73.61
46241;BME280;31961;52.416;-0.732;2022-08-19T01:23:58;100319.06;;;16.52;71.39
46241;BME280;31961;52.416;-0.732;2022-08-19T01:26:27;100307.61;;;16.94;69.65
46241;BME280;31961;52.416;-0.732;2022-08-19T01:28:56;100315.50;;;16.57;70.92
46241;BME280;31961;52.416;-0.732;2022-08-19T01:31:26;100317.44;;;16.47;70.80
46241;BME280;31961;52.416;-0.732;2022-08-19T01:33:56;100313.30;;;16.67;69.46
46241;BME280;31961;52.416;-0.732;2022-08-19T01:36:26;100317.58;;;17.00;69.25
46241;BME280;31961;52.416;-0.732;2022-08-19T01:38:54;100316.04;;;16.92;69.27
46241;BME280;31961;52.416;-0.732;2022-08-19T01:41:21;100319.25;;;16.83;68.43
46241;BME280;31961;52.416;-0.732;2022-08-19T01:43:49;100322.95;;;16.73;70.09
46241;BME280;31961;52.416;-0.732;2022-08-19T01:46:16;100316.06;;;17.21;67.70
46241;BME280;31961;52.416;-0.732;2022-08-19T01:48:44;100312.71;;;17.15;68.72
46241;BME280;31961;52.416;-0.732;2022-08-19T01:51:13;100324.26;;;16.02;72.46
46241;BME280;31961;52.416;-0.732;2022-08-19T01:53:41;100318.43;;;16.24;70.85
46241;BME280;31961;52.416;-0.732;2022-08-19T01:56:09;100313.10;;;16.46;68.87
46241;BME280;31961;52.416;-0.732;2022-08-19T01:58:40;100309.07;;;16.69;69.91
46241;BME280;31961;52.416;-0.732;2022-08-19T02:01:09;100309.16;;;17.67;66.55
46241;BME280;31961;52.416;-0.732;2022-08-19T02:03:36;100307.97;;;16.95;67.94
46241;BME280;31961;52.416;-0.732;2022-08-19T02:06:04;100311.90;;;17.36;67.73
46241;BME280;31961;52.416;-0.732;2022-08-19T02:08:35;100319.23;;;16.61;69.71
46241;BME280;31961;52.416;-0.732;2022-08-19T02:11:04;100313.17;;;16.94;68.40
46241;BME280;31961;52.416;-0.732;2022-08-19T02:13:33;100313.20;;;17.67;67.39
46241;BME280;31961;52.416;-0.732;2022-08-19T02:16:00;100313.42;;;17.63;67.80
46241;BME280;31961;52.416;-0.732;2022-08-19T02:18:28;100310.49;;;17.38;66.75
46241;BME280;31961;52.416;-0.732;2022-08-19T02:20:55;100312.82;;;17.68;67.09
46241;BME280;31961;52.416;-0.732;2022-08-19T02:23:23;100312.47;;;16.77;68.13
46241;BME280;31961;52.416;-0.732;2022-08-19T02:25:51;100318.56;;;16.38;70.14
46241;BME280;31961;52.416;-0.732;2022-08-19T02:28:18;100316.35;;;17.40;68.20
46241;BME280;31961;52.416;-0.732;2022-08-19T02:30:47;100317.92;;;17.22;68.39
46241;BME280;31961;52.416;-0.732;2022-08-19T02:33:15;100320.07;;;16.31;69.35
46241;BME280;31961;52.416;-0.732;2022-08-19T02:35:43;100316.30;;;17.36;68.37
46241;BME280;31961;52.416;-0.732;2022-08-19T02:38:10;100320.57;;;17.02;69.33
46241;BME280;31961;52.416;-0.732;2022-08-19T02:40:37;100319.20;;;17.21;68.20
46241;BME280;31961;52.416;-0.732;2022-08-19T02:43:07;100319.88;;;16.96;68.74
46241;BME280;31961;52.416;-0.732;2022-08-19T02:45:37;100319.58;;;17.01;68.25
46241;BME280;31961;52.416;-0.732;2022-08-19T02:48:04;100326.62;;;16.58;70.92
46241;BME280;31961;52.416;-0.732;2022-08-19T02:50:32;100336.22;;;15.81;74.98
46241;BME280;31961;52.416;-0.732;2022-08-19T02:52:59;100331.95;;;16.62;73.98
46241;BME280;31961;52.416;-0.732;2022-08-19T02:55:27;100341.65;;;16.22;75.62
46241;BME280;31961;52.416;-0.732;2022-08-19T02:57:55;100348.08;;;16.36;76.22
46241;BME280;31961;52.416;-0.732;2022-08-19T03:00:22;100349.08;;;15.44;79.86
46241;BME280;31961;52.416;-0.732;2022-08-19T03:02:50;100349.30;;;15.52;79.97
46241;BME280;31961;52.416;-0.732;2022-08-19T03:05:17;100348.34;;;15.75;78.60
46241;BME280;31961;52.416;-0.732;2022-08-19T03:07:45;100349.00;;;15.14;79.35
46241;BME280;31961;52.416;-0.732;2022-08-19T03:10:13;100349.30;;;15.51;78.69
46241;BME280;31961;52.416;-0.732;2022-08-19T03:12:40;100354.05;;;15.32;80.51
46241;BME280;31961;52.416;-0.732;2022-08-19T03:15:08;100354.31;;;15.76;79.77
46241;BME280;31961;52.416;-0.732;2022-08-19T03:17:36;100352.27;;;15.83;80.38
46241;BME280;31961;52.416;-0.732;2022-08-19T03:20:04;100354.12;;;16.16;79.09
46241;BME280;31961;52.416;-0.732;2022-08-19T03:22:32;100352.15;;;16.33;76.92
46241;BME280;31961;52.416;-0.732;2022-08-19T03:24:59;100350.98;;;16.57;76.43
46241;BME280;31961;52.416;-0.732;2022-08-19T03:27:27;100358.48;;;16.31;76.88
46241;BME280;31961;52.416;-0.732;2022-08-19T03:29:54;100364.24;;;14.61;82.67
46241;BME280;31961;52.416;-0.732;2022-08-19T03:32:22;100363.98;;;16.20;79.54
46241;BME280;31961;52.416;-0.732;2022-08-19T03:34:49;100363.55;;;15.65;79.26
46241;BME280;31961;52.416;-0.732;2022-08-19T03:37:17;100356.79;;;15.72;78.71
46241;BME280;31961;52.416;-0.732;2022-08-19T03:39:44;100355.24;;;15.22;78.79
46241;BME280;31961;52.416;-0.732;2022-08-19T03:42:12;100355.24;;;16.28;76.91
46241;BME280;31961;52.416;-0.732;2022-08-19T03:44:39;100359.31;;;15.23;78.38
46241;BME280;31961;52.416;-0.732;2022-08-19T03:47:07;100362.59;;;15.49;78.82
46241;BME280;31961;52.416;-0.732;2022-08-19T03:49:35;100361.24;;;14.28;80.70
46241;BME280;31961;52.416;-0.732;2022-08-19T03:52:03;100358.04;;;14.62;79.85
46241;BME280;31961;52.416;-0.732;2022-08-19T03:54:32;100355.79;;;14.79;80.53
46241;BME280;31961;52.416;-0.732;2022-08-19T03:57:00;100352.08;;;15.29;78.10
46241;BME280;31961;52.416;-0.732;2022-08-19T03:59:33;100360.13;;;14.74;79.71
46241;BME280;31961;52.416;-0.732;2022-08-19T04:02:02;100353.59;;;15.39;78.78
46241;BME280;31961;52.416;-0.732;2022-08-19T04:04:31;100352.96;;;15.12;77.31
46241;BME280;31961;52.416;-0.732;2022-08-19T04:06:58;100352.38;;;16.09;74.94
46241;BME280;31961;52.416;-0.732;2022-08-19T04:09:26;100351.57;;;14.98;76.00
46241;BME280;31961;52.416;-0.732;2022-08-19T04:11:55;100350.12;;;15.76;75.39
46241;BME280;31961;52.416;-0.732;2022-08-19T04:14:25;100345.60;;;15.84;74.20
46241;BME280;31961;52.416;-0.732;2022-08-19T04:16:53;100349.01;;;16.24;73.98
46241;BME280;31961;52.416;-0.732;2022-08-19T04:19:20;100350.84;;;15.40;75.75
46241;BME280;31961;52.416;-0.732;2022-08-19T04:21:49;100350.12;;;16.10;74.01
46241;BME280;31961;52.416;-0.732;2022-08-19T04:24:18;100349.67;;;15.46;74.90
46241;BME280;31961;52.416;-0.732;2022-08-19T04:26:46;100351.80;;;16.27;74.59
46241;BME280;31961;52.416;-0.732;2022-08-19T04:29:15;100351.08;;;16.47;73.09
46241;BME280;31961;52.416;-0.732;2022-08-19T04:31:43;100364.05;;;16.40;73.23
46241;BME280;31961;52.416;-0.732;2022-08-19T04:34:14;100365.69;;;14.91;76.00
46241;BME280;31961;52.416;-0.732;2022-08-19T04:36:43;100363.06;;;15.48;74.23
46241;BME280;31961;52.416;-0.732;2022-08-19T04:39:14;100347.68;;;17.29;70.72
46241;BME280;31961;52.416;-0.732;2022-08-19T04:41:41;100359.37;;;17.76;68.87
46241;BME280;31961;52.416;-0.732;2022-08-19T04:44:09;100369.37;;;16.99;70.61
46241;BME280;31961;52.416;-0.732;2022-08-19T04:46:37;100376.59;;;15.70;72.73
46241;BME280;31961;52.416;-0.732;2022-08-19T04:49:05;100376.01;;;16.91;70.72
46241;BME280;31961;52.416;-0.732;2022-08-19T04:51:34;100382.54;;;15.53;73.42
46241;BME280;31961;52.416;-0.732;2022-08-19T04:54:02;100373.82;;;17.20;70.44
46241;BME280;31961;52.416;-0.732;2022-08-19T04:56:30;100378.75;;;17.09;69.96
46241;BME280;31961;52.416;-0.732;2022-08-19T04:58:58;100374.85;;;17.21;68.35
46241;BME280;31961;52.416;-0.732;2022-08-19T05:01:27;100376.14;;;17.43;68.64
46241;BME280;31961;52.416;-0.732;2022-08-19T05:03:56;100386.86;;;15.99;72.31
46241;BME280;31961;52.416;-0.732;2022-08-19T05:06:23;100386.52;;;16.68;71.70
46241;BME280;31961;52.416;-0.732;2022-08-19T05:08:50;100385.84;;;15.39;74.42
46241;BME280;31961;52.416;-0.732;2022-08-19T05:11:20;100390.51;;;16.48;72.87
46241;BME280;31961;52.416;-0.732;2022-08-19T05:13:48;100398.68;;;15.38;75.31
46241;BME280;31961;52.416;-0.732;2022-08-19T05:16:18;100400.55;;;15.72;74.19
46241;BME280;31961;52.416;-0.732;2022-08-19T05:18:47;100403.40;;;16.48;73.32
46241;BME280;31961;52.416;-0.732;2022-08-19T05:21:16;100404.67;;;15.58;75.36
46241;BME280;31961;52.416;-0.732;2022-08-19T05:23:44;100414.16;;;16.27;73.60
46241;BME280;31961;52.416;-0.732;2022-08-19T05:26:11;100416.20;;;16.61;72.53
46241;BME280;31961;52.416;-0.732;2022-08-19T05:28:39;100418.02;;;16.59;72.86
46241;BME280;31961;52.416;-0.732;2022-08-19T05:31:07;100417.83;;;16.09;74.53
46241;BME280;31961;52.416;-0.732;2022-08-19T05:33:33;100419.31;;;14.50;78.10
46241;BME280;31961;52.416;-0.732;2022-08-19T05:36:02;100418.41;;;15.19;77.91
46241;BME280;31961;52.416;-0.732;2022-08-19T05:38:29;100421.50;;;15.52;78.20
46241;BME280;31961;52.416;-0.732;2022-08-19T05:40:57;100419.18;;;14.60;79.23
46241;BME280;31961;52.416;-0.732;2022-08-19T05:43:24;100418.85;;;14.57;78.75
46241;BME280;31961;52.416;-0.732;2022-08-19T05:45:52;100426.31;;;14.55;80.38
46241;BME280;31961;52.416;-0.732;2022-08-19T05:48:20;100433.61;;;13.99;82.27
46241;BME280;31961;52.416;-0.732;2022-08-19T05:50:47;100436.63;;;14.37;82.44
46241;BME280;31961;52.416;-0.732;2022-08-19T05:53:14;100432.03;;;15.52;78.49
46241;BME280;31961;52.416;-0.732;2022-08-19T05:55:42;100427.59;;;15.39;76.56
46241;BME280;31961;52.416;-0.732;2022-08-19T05:58:09;100430.48;;;15.20;77.84
46241;BME280;31961;52.416;-0.732;2022-08-19T06:00:37;100426.36;;;15.05;75.20
46241;BME280;31961;52.416;-0.732;2022-08-19T06:03:05;100436.36;;;15.42;77.24
46241;BME280;31961;52.416;-0.732;2022-08-19T06:05:33;100442.91;;;14.52;77.75
46241;BME280;31961;52.416;-0.732;2022-08-19T06:08:00;100438.38;;;15.16;78.06
46241;BME280;31961;52.416;-0.732;2022-08-19T06:10:27;100445.85;;;14.43;80.43
46241;BME280;31961;52.416;-0.732;2022-08-19T06:12:55;100447.46;;;14.14;80.85
46241;BME280;31961;52.416;-0.732;2022-08-19T06:15:22;100450.39;;;14.82;79.88
46241;BME280;31961;52.416;-0.732;2022-08-19T06:17:50;100445.74;;;15.26;77.90
46241;BME280;31961;52.416;-0.732;2022-08-19T06:20:17;100450.60;;;14.78;80.27
46241;BME280;31961;52.416;-0.732;2022-08-19T06:22:47;100449.91;;;14.84;78.79
46241;BME280;31961;52.416;-0.732;2022-08-19T06:25:15;100449.19;;;14.30;80.68
46241;BME280;31961;52.416;-0.732;2022-08-19T06:27:43;100456.01;;;13.81;82.60
46241;BME280;31961;52.416;-0.732;2022-08-19T06:30:11;100451.65;;;14.82;79.98
46241;BME280;31961;52.416;-0.732;2022-08-19T06:32:39;100452.23;;;14.58;79.65
46241;BME280;31961;52.416;-0.732;2022-08-19T06:35:07;100450.22;;;15.64;77.59
46241;BME280;31961;52.416;-0.732;2022-08-19T06:37:35;100452.94;;;14.76;78.13
46241;BME280;31961;52.416;-0.732;2022-08-19T06:40:04;100458.49;;;14.78;77.99
46241;BME280;31961;52.416;-0.732;2022-08-19T06:42:32;100455.32;;;13.86;76.88
46241;BME280;31961;52.416;-0.732;2022-08-19T06:44:59;100461.55;;;13.97;77.29
46241;BME280;31961;52.416;-0.732;2022-08-19T06:47:26;100461.58;;;13.85;77.41
46241;BME280;31961;52.416;-0.732;2022-08-19T06:49:53;100465.84;;;14.02;76.21
46241;BME280;31961;52.416;-0.732;2022-08-19T06:52:21;100467.19;;;13.81;76.01
46241;BME280;31961;52.416;-0.732;2022-08-19T06:54:48;100469.34;;;13.52;75.64
46241;BME280;31961;52.416;-0.732;2022-08-19T06:57:16;100470.91;;;13.54;75.81
46241;BME280;31961;52.416;-0.732;2022-08-19T06:59:43;100475.10;;;14.97;74.03
46241;BME280;31961;52.416;-0.732;2022-08-19T07:02:11;100475.60;;;14.68;72.69
46241;BME280;31961;52.416;-0.732;2022-08-19T07:04:38;100477.15;;;13.79;73.30
46241;BME280;31961;52.416;-0.732;2022-08-19T07:07:09;100473.30;;;14.82;71.36
46241;BME280;31961;52.416;-0.732;2022-08-19T07:09:39;100474.73;;;13.78;69.35
46241;BME280;31961;52.416;-0.732;2022-08-19T07:12:09;100474.00;;;14.24;68.68
46241;BME280;31961;52.416;-0.732;2022-08-19T07:14:37;100477.00;;;13.71;69.13
46241;BME280;31961;52.416;-0.732;2022-08-19T07:17:07;100477.03;;;13.93;68.27
46241;BME280;31961;52.416;-0.732;2022-08-19T07:19:36;100482.48;;;13.81;69.21
46241;BME280;31961;52.416;-0.732;2022-08-19T07:22:06;100487.45;;;14.25;68.48
46241;BME280;31961;52.416;-0.732;2022-08-19T07:24:35;100487.84;;;14.05;68.73
46241;BME280;31961;52.416;-0.732;2022-08-19T07:27:04;100490.31;;;14.03;69.40
46241;BME280;31961;52.416;-0.732;2022-08-19T07:29:34;100501.38;;;13.12;69.41
46241;BME280;31961;52.416;-0.732;2022-08-19T07:32:03;100503.35;;;13.79;67.69
46241;BME280;31961;52.416;-0.732;2022-08-19T07:34:33;100502.16;;;13.92;65.61
46241;BME280;31961;52.416;-0.732;2022-08-19T07:37:00;100513.18;;;13.01;66.76
46241;BME280;31961;52.416;-0.732;2022-08-19T07:39:29;100508.13;;;14.03;65.52
46241;BME280;31961;52.416;-0.732;2022-08-19T07:41:59;100505.90;;;15.04;63.61
46241;BME280;31961;52.416;-0.732;2022-08-19T07:44:27;100512.33;;;13.47;64.23
46241;BME280;31961;52.416;-0.732;2022-08-19T07:46:56;100509.69;;;13.57;67.21
46241;BME280;31961;52.416;-0.732;2022-08-19T07:49:24;100506.30;;;13.98;65.74
46241;BME280;31961;52.416;-0.732;2022-08-19T07:51:53;100509.59;;;13.63;63.98
46241;BME280;31961;52.416;-0.732;2022-08-19T07:54:22;100504.07;;;14.34;63.71
46241;BME280;31961;52.416;-0.732;2022-08-19T07:56:51;100509.93;;;13.95;63.50
46241;BME280;31961;52.416;-0.732;2022-08-19T07:59:21;100512.56;;;13.82;64.19
46241;BME280;31961;52.416;-0.732;2022-08-19T08:01:49;100519.50;;;14.15;65.03
46241;BME280;31961;52.416;-0.732;2022-08-19T08:04:17;100524.33;;;13.49;64.17
46241;BME280;31961;52.416;-0.732;2022-08-19T08:06:44;100519.15;;;14.00;63.45
46241;BME280;31961;52.416;-0.732;2022-08-19T08:09:14;100523.77;;;14.01;63.01
46241;BME280;31961;52.416;-0.732;2022-08-19T08:11:45;100533.59;;;14.09;64.13
46241;BME280;31961;52.416;-0.732;2022-08-19T08:14:12;100540.84;;;14.15;63.47
46241;BME280;31961;52.416;-0.732;2022-08-19T08:16:38;100543.71;;;13.07;66.97
46241;BME280;31961;52.416;-0.732;2022-08-19T08:19:06;100545.82;;;13.06;66.76
46241;BME280;31961;52.416;-0.732;2022-08-19T08:21:34;100533.10;;;13.90;64.35
46241;BME280;31961;52.416;-0.732;2022-08-19T08:24:01;100531.12;;;14.56;64.26
46241;BME280;31961;52.416;-0.732;2022-08-19T08:26:29;100537.18;;;14.39;64.75
46241;BME280;31961;52.416;-0.732;2022-08-19T08:28:56;100536.68;;;14.19;65.16
46241;BME280;31961;52.416;-0.732;2022-08-19T08:31:24;100532.91;;;14.43;63.42
46241;BME280;31961;52.416;-0.732;2022-08-19T08:33:51;100539.83;;;13.94;64.65
46241;BME280;31961;52.416;-0.732;2022-08-19T08:36:19;100544.65;;;14.00;64.36
46241;BME280;31961;52.416;-0.732;2022-08-19T08:38:47;100535.59;;;13.55;64.11
46241;BME280;31961;52.416;-0.732;2022-08-19T08:41:21;100536.32;;;13.76;64.07
46241;BME280;31961;52.416;-0.732;2022-08-19T08:43:51;100525.15;;;14.07;63.58
46241;BME280;31961;52.416;-0.732;2022-08-19T08:46:24;100521.82;;;14.52;61.69
46241;BME280;31961;52.416;-0.732;2022-08-19T08:48:57;100535.83;;;13.89;62.59
46241;BME280;31961;52.416;-0.732;2022-08-19T08:51:29;100539.69;;;14.30;61.88
46241;BME280;31961;52.416;-0.732;2022-08-19T08:53:59;100539.37;;;14.36;60.17
46241;BME280;31961;52.416;-0.732;2022-08-19T08:56:28;100538.61;;;14.41;60.39
46241;BME280;31961;52.416;-0.732;2022-08-19T08:59:00;100536.07;;;14.48;58.92
46241;BME280;31961;52.416;-0.732;2022-08-19T09:01:28;100532.13;;;14.71;59.69
46241;BME280;31961;52.416;-0.732;2022-08-19T09:03:55;100539.12;;;14.24;60.68
46241;BME280;31961;52.416;-0.732;2022-08-19T09:06:27;100547.42;;;13.73;61.84
46241;BME280;31961;52.416;-0.732;2022-08-19T09:09:03;100551.19;;;14.28;59.81
46241;BME280;31961;52.416;-0.732;2022-08-19T09:11:43;100553.02;;;14.19;59.23
46241;BME280;31961;52.416;-0.732;2022-08-19T09:14:23;100542.17;;;14.62;60.21
46241;BME280;31961;52.416;-0.732;2022-08-19T09:16:57;100543.82;;;14.63;57.59
46241;BME280;31961;52.416;-0.732;2022-08-19T09:19:25;100541.85;;;15.06;58.25
46241;BME280;31961;52.416;-0.732;2022-08-19T09:21:52;100537.37;;;14.54;58.31
46241;BME280;31961;52.416;-0.732;2022-08-19T09:24:20;100543.91;;;14.64;58.74
46241;BME280;31961;52.416;-0.732;2022-08-19T09:26:47;100539.26;;;14.98;58.26
46241;BME280;31961;52.416;-0.732;2022-08-19T09:29:15;100531.25;;;15.09;57.98
46241;BME280;31961;52.416;-0.732;2022-08-19T09:31:42;100537.87;;;14.34;59.38
46241;BME280;31961;52.416;-0.732;2022-08-19T09:34:09;100554.70;;;14.29;52.29
46241;BME280;31961;52.416;-0.732;2022-08-19T09:36:36;100552.34;;;13.95;53.83
46241;BME280;31961;52.416;-0.732;2022-08-19T09:39:04;100547.24;;;13.95;54.38
46241;BME280;31961;52.416;-0.732;2022-08-19T09:41:32;100539.49;;;14.42;53.17
46241;BME280;31961;52.416;-0.732;2022-08-19T09:43:59;100536.82;;;14.96;53.66
46241;BME280;31961;52.416;-0.732;2022-08-19T09:46:28;100540.77;;;14.73;53.41
46241;BME280;31961;52.416;-0.732;2022-08-19T09:48:57;100537.38;;;14.61;52.17
46241;BME280;31961;52.416;-0.732;2022-08-19T09:51:25;100544.48;;;14.74;52.56
46241;BME280;31961;52.416;-0.732;2022-08-19T09:53:53;100546.18;;;14.62;49.82
46241;BME280;31961;52.416;-0.732;2022-08-19T09:56:22;100546.68;;;15.17;51.65
46241;BME280;31961;52.416;-0.732;2022-08-19T09:58:49;100548.92;;;14.72;51.27
46241;BME280;31961;52.416;-0.732;2022-08-19T10:01:18;100554.27;;;14.52;50.79
46241;BME280;31961;52.416;-0.732;2022-08-19T10:03:48;100556.61;;;14.80;50.86
46241;BME280;31961;52.416;-0.732;2022-08-19T10:06:16;100556.52;;;14.87;50.61
46241;BME280;31961;52.416;-0.732;2022-08-19T10:08:43;100566.77;;;15.66;50.61
46241;BME280;31961;52.416;-0.732;2022-08-19T10:11:11;100567.01;;;14.81;50.77
46241;BME280;31961;52.416;-0.732;2022-08-19T10:13:39;100571.80;;;15.20;48.76
46241;BME280;31961;52.416;-0.732;2022-08-19T10:16:07;100568.67;;;14.80;49.94
46241;BME280;31961;52.416;-0.732;2022-08-19T10:18:36;100554.23;;;15.01;48.59
46241;BME280;31961;52.416;-0.732;2022-08-19T10:21:07;100554.53;;;14.99;49.10
46241;BME280;31961;52.416;-0.732;2022-08-19T10:23:35;100546.63;;;14.88;47.74
46241;BME280;31961;52.416;-0.732;2022-08-19T10:26:04;100548.66;;;14.99;49.33
46241;BME280;31961;52.416;-0.732;2022-08-19T10:28:33;100558.98;;;15.17;48.22
46241;BME280;31961;52.416;-0.732;2022-08-19T10:31:04;100556.35;;;15.23;47.45
46241;BME280;31961;52.416;-0.732;2022-08-19T10:33:31;100552.18;;;15.34;47.15
46241;BME280;31961;52.416;-0.732;2022-08-19T10:35:59;100562.63;;;16.00;45.78
46241;BME280;31961;52.416;-0.732;2022-08-19T10:38:26;100571.15;;;15.44;44.68
46241;BME280;31961;52.416;-0.732;2022-08-19T10:40:54;100562.88;;;15.44;44.30
46241;BME280;31961;52.416;-0.732;2022-08-19T10:43:22;100561.41;;;15.64;42.01
46241;BME280;31961;52.416;-0.732;2022-08-19T10:45:52;100559.76;;;15.00;44.62
46241;BME280;31961;52.416;-0.732;2022-08-19T10:48:19;100564.89;;;16.05;44.59
46241;BME280;31961;52.416;-0.732;2022-08-19T10:50:47;100575.45;;;15.63;44.06
46241;BME280;31961;52.416;-0.732;2022-08-19T10:53:14;100564.17;;;16.06;44.70
46241;BME280;31961;52.416;-0.732;2022-08-19T10:55:44;100565.60;;;15.14;43.07
46241;BME280;31961;52.416;-0.732;2022-08-19T10:58:13;100573.51;;;15.93;42.99
46241;BME280;31961;52.416;-0.732;2022-08-19T11:00:41;100569.81;;;16.23;39.79
46241;BME280;31961;52.416;-0.732;2022-08-19T11:03:09;100568.40;;;15.74;39.93
46241;BME280;31961;52.416;-0.732;2022-08-19T11:05:37;100574.31;;;15.50;40.69
46241;BME280;31961;52.416;-0.732;2022-08-19T11:08:04;100573.65;;;15.56;41.36
46241;BME280;31961;52.416;-0.732;2022-08-19T11:10:31;100569.98;;;16.07;42.57
46241;BME280;31961;52.416;-0.732;2022-08-19T11:12:58;100563.85;;;16.36;42.07
46241;BME280;31961;52.416;-0.732;2022-08-19T11:15:26;100562.59;;;16.34;40.64
46241;BME280;31961;52.416;-0.732;2022-08-19T11:17:53;100579.75;;;16.33;41.48
46241;BME280;31961;52.416;-0.732;2022-08-19T11:20:21;100582.33;;;15.80;40.96
46241;BME280;31961;52.416;-0.732;2022-08-19T11:22:48;100579.10;;;15.71;41.73
46241;BME280;31961;52.416;-0.732;2022-08-19T11:25:18;100570.18;;;15.93;42.36
46241;BME280;31961;52.416;-0.732;2022-08-19T11:27:45;100569.02;;;16.48;42.74
46241;BME280;31961;52.416;-0.732;2022-08-19T11:30:13;100567.37;;;16.48;41.32
46241;BME280;31961;52.416;-0.732;2022-08-19T11:32:41;100571.81;;;16.18;41.52
46241;BME280;31961;52.416;-0.732;2022-08-19T11:35:08;100576.73;;;16.11;42.52
46241;BME280;31961;52.416;-0.732;2022-08-19T11:37:35;100571.32;;;16.02;42.34
46241;BME280;31961;52.416;-0.732;2022-08-19T11:40:05;100556.33;;;16.23;41.52
46241;BME280;31961;52.416;-0.732;2022-08-19T11:42:33;100565.22;;;16.20;40.79
46241;BME280;31961;52.416;-0.732;2022-08-19T11:45:00;100562.66;;;16.67;41.32
46241;BME280;31961;52.416;-0.732;2022-08-19T11:47:27;100561.57;;;17.04;41.20
46241;BME280;31961;52.416;-0.732;2022-08-19T11:49:54;100553.21;;;16.44;40.69
46241;BME280;31961;52.416;-0.732;2022-08-19T11:52:22;100569.46;;;16.30;41.62
46241;BME280;31961;52.416;-0.732;2022-08-19T11:54:49;100551.69;;;17.01;41.21
46241;BME280;31961;52.416;-0.732;2022-08-19T11:57:17;100554.84;;;17.52;40.30
46241;BME280;31961;52.416;-0.732;2022-08-19T11:59:50;100554.64;;;17.10;40.62
46241;BME280;31961;52.416;-0.732;2022-08-19T12:02:18;100550.08;;;17.12;40.70
46241;BME280;31961;52.416;-0.732;2022-08-19T12:04:45;100555.22;;;17.25;39.56
46241;BME280;31961;52.416;-0.732;2022-08-19T12:07:13;100553.80;;;17.40;40.99
46241;BME280;31961;52.416;-0.732;2022-08-19T12:09:40;100553.11;;;17.41;40.39
46241;BME280;31961;52.416;-0.732;2022-08-19T12:12:08;100549.10;;;17.28;40.46
46241;BME280;31961;52.416;-0.732;2022-08-19T12:14:36;100567.62;;;17.11;40.56
46241;BME280;31961;52.416;-0.732;2022-08-19T12:17:03;100558.88;;;17.26;40.90
46241;BME280;31961;52.416;-0.732;2022-08-19T12:19:31;100557.76;;;17.68;41.57
46241;BME280;31961;52.416;-0.732;2022-08-19T12:21:59;100568.03;;;17.64;40.09
46241;BME280;31961;52.416;-0.732;2022-08-19T12:24:27;100559.37;;;17.69;39.85
46241;BME280;31961;52.416;-0.732;2022-08-19T12:26:54;100564.18;;;17.71;40.14
46241;BME280;31961;52.416;-0.732;2022-08-19T12:29:21;100565.61;;;17.43;41.61
46241;BME280;31961;52.416;-0.732;2022-08-19T12:31:48;100556.09;;;17.57;40.19
46241;BME280;31961;52.416;-0.732;2022-08-19T12:34:16;100557.02;;;18.21;39.12
46241;BME280;31961;52.416;-0.732;2022-08-19T12:36:44;100555.74;;;18.24;38.03
46241;BME280;31961;52.416;-0.732;2022-08-19T12:39:11;100562.70;;;17.94;39.21
46241;BME280;31961;52.416;-0.732;2022-08-19T12:41:39;100564.15;;;17.33;39.05
46241;BME280;31961;52.416;-0.732;2022-08-19T12:44:06;100564.03;;;18.14;38.74
46241;BME280;31961;52.416;-0.732;2022-08-19T12:46:33;100568.39;;;17.71;39.72